ΕΜΥ, Εθνική Μετεωρολογική Υπηρεσία - Δελτία Καιρού, Προγνώσεις

ΑΕΡΟΝΑΥΤΙΛΙΑ

GREEK AIRPORTS CODES

LGAV 020750Z 03010KT CAVOK 36/13 Q1011 RMK NOSIG=

EUROPEAN AIRPORTS CODES

LFPO 020800Z VRB03KT 9999 BKN030 BKN110 18/13 Q1016 NOSIG=